createdAt,value
2017-12-31T00:01:44.522Z,10.10
2017-12-31T00:04:12.739Z,10.00
2017-12-31T00:06:40.313Z,10.10
2017-12-31T00:09:10.569Z,10.10
2017-12-31T00:11:38.335Z,10.10
2017-12-31T00:14:06.081Z,10.10
2017-12-31T00:16:33.836Z,10.20
2017-12-31T00:19:02.016Z,10.20
2017-12-31T00:21:29.689Z,10.30
2017-12-31T00:23:57.282Z,10.30
2017-12-31T00:26:27.479Z,10.30
2017-12-31T00:28:56.186Z,10.30
2017-12-31T00:31:24.349Z,10.40
2017-12-31T00:33:54.228Z,10.40
2017-12-31T00:36:23.147Z,10.40
2017-12-31T00:38:55.613Z,10.40
2017-12-31T00:41:26.185Z,10.40
2017-12-31T00:44:01.357Z,10.30
2017-12-31T00:46:29.948Z,10.40
2017-12-31T00:48:58.245Z,10.40
2017-12-31T00:51:28.159Z,10.40
2017-12-31T00:53:58.292Z,10.40
2017-12-31T00:56:28.030Z,10.50
2017-12-31T00:58:55.627Z,10.50
2017-12-31T01:01:23.687Z,10.50
2017-12-31T01:03:51.404Z,10.50
2017-12-31T01:06:20.572Z,10.50
2017-12-31T01:08:49.130Z,10.50
2017-12-31T01:11:18.805Z,10.50
2017-12-31T01:13:48.457Z,10.50
2017-12-31T01:16:18.620Z,10.50
2017-12-31T01:18:48.410Z,10.60
2017-12-31T01:21:17.340Z,10.60
2017-12-31T01:23:45.410Z,10.60
2017-12-31T01:26:23.831Z,10.60
2017-12-31T01:31:50.519Z,10.60
2017-12-31T01:34:18.294Z,10.60
2017-12-31T01:36:49.447Z,10.70
2017-12-31T01:39:17.324Z,10.70
2017-12-31T01:44:39.173Z,10.70
2017-12-31T01:47:14.294Z,10.60
2017-12-31T01:49:43.306Z,10.50
2017-12-31T01:52:36.814Z,10.50
2017-12-31T01:55:07.654Z,10.50
2017-12-31T01:57:41.949Z,10.50
2017-12-31T02:03:03.510Z,10.40
2017-12-31T02:05:36.667Z,10.40
2017-12-31T02:10:54.726Z,10.50
2017-12-31T02:13:22.410Z,10.50
2017-12-31T02:15:50.090Z,10.50
2017-12-31T02:18:18.986Z,10.50
2017-12-31T02:20:46.843Z,10.60
2017-12-31T02:23:25.311Z,10.60
2017-12-31T02:33:58.281Z,10.60
2017-12-31T02:36:25.815Z,10.60
2017-12-31T02:38:55.935Z,10.60
2017-12-31T02:41:23.566Z,10.60
2017-12-31T02:43:51.115Z,10.60
2017-12-31T02:46:18.719Z,10.70
2017-12-31T02:48:49.515Z,10.70
2017-12-31T02:51:17.820Z,10.70
2017-12-31T02:53:45.406Z,10.70
2017-12-31T02:56:14.610Z,10.70
2017-12-31T02:58:42.146Z,10.70
2017-12-31T03:01:09.682Z,10.70
2017-12-31T03:03:40.819Z,10.70
2017-12-31T03:06:09.122Z,10.70
2017-12-31T03:08:37.467Z,10.60
2017-12-31T03:11:05.786Z,10.60
2017-12-31T03:13:34.451Z,10.60
2017-12-31T03:16:02.835Z,10.50
2017-12-31T03:18:30.443Z,10.50
2017-12-31T03:20:58.558Z,10.40
2017-12-31T03:23:26.127Z,10.40
2017-12-31T03:25:53.696Z,10.40
2017-12-31T03:28:21.246Z,10.40
2017-12-31T03:30:48.779Z,10.40
2017-12-31T03:33:17.223Z,10.40
2017-12-31T03:35:44.755Z,10.30
2017-12-31T03:38:12.287Z,10.20
2017-12-31T03:40:41.104Z,10.20
2017-12-31T03:43:08.643Z,10.20
2017-12-31T03:45:36.178Z,10.20
2017-12-31T03:48:04.611Z,10.20
2017-12-31T03:50:32.186Z,10.20
2017-12-31T03:52:59.719Z,10.10
2017-12-31T03:55:27.290Z,10.10
2017-12-31T03:57:54.831Z,10.10
2017-12-31T04:00:22.375Z,10.10
2017-12-31T04:02:50.727Z,10.10
2017-12-31T04:05:18.262Z,10.10
2017-12-31T04:07:45.790Z,10.10
2017-12-31T04:10:29.634Z,10.00
2017-12-31T04:16:02.031Z,9.90
2017-12-31T04:18:29.566Z,9.80
2017-12-31T04:20:58.009Z,10.00
2017-12-31T04:23:25.587Z,9.90
2017-12-31T04:25:53.152Z,10.00
2017-12-31T04:28:21.032Z,10.10
2017-12-31T04:30:49.430Z,10.20
2017-12-31T04:33:17.145Z,10.20
2017-12-31T04:35:44.677Z,10.30
2017-12-31T04:38:12.232Z,10.30
2017-12-31T04:40:39.811Z,10.30
2017-12-31T04:43:07.894Z,10.40
2017-12-31T04:45:37.705Z,10.40
2017-12-31T04:48:05.234Z,10.50
2017-12-31T04:50:33.679Z,10.50
2017-12-31T04:53:02.042Z,10.50
2017-12-31T04:55:29.573Z,10.60
2017-12-31T04:57:57.094Z,10.60
2017-12-31T05:00:24.724Z,10.60
2017-12-31T05:02:53.566Z,10.60
2017-12-31T05:05:21.155Z,10.60
2017-12-31T05:07:48.750Z,10.70
2017-12-31T05:10:20.880Z,10.70
2017-12-31T05:12:48.419Z,10.60
2017-12-31T05:15:19.887Z,10.70
2017-12-31T05:17:47.539Z,10.70
2017-12-31T05:20:33.235Z,10.70
2017-12-31T05:23:02.243Z,10.70
2017-12-31T05:25:29.779Z,10.70
2017-12-31T05:27:57.386Z,10.70
2017-12-31T05:30:24.915Z,10.60
2017-12-31T05:32:52.451Z,10.60
2017-12-31T05:35:21.833Z,10.60
2017-12-31T05:37:49.539Z,10.70
2017-12-31T05:40:17.819Z,10.80
2017-12-31T05:42:46.304Z,10.80
2017-12-31T05:45:16.119Z,10.80
2017-12-31T05:47:45.110Z,10.80
2017-12-31T05:50:12.789Z,10.80
2017-12-31T05:52:40.431Z,10.80
2017-12-31T05:55:10.096Z,10.80
2017-12-31T05:57:38.688Z,10.80
2017-12-31T06:00:06.396Z,10.80
2017-12-31T06:02:34.079Z,10.90
2017-12-31T06:05:02.615Z,10.90
2017-12-31T06:07:30.536Z,10.90
2017-12-31T06:09:58.924Z,10.90
2017-12-31T06:12:26.644Z,10.90
2017-12-31T06:14:55.014Z,10.90
2017-12-31T06:17:22.667Z,10.90
2017-12-31T06:19:52.060Z,11.00
2017-12-31T06:22:20.437Z,10.90
2017-12-31T06:27:24.306Z,10.90
2017-12-31T06:29:57.450Z,11.00
2017-12-31T06:32:25.673Z,11.00
2017-12-31T06:34:56.140Z,10.90
2017-12-31T06:37:25.377Z,10.90
2017-12-31T06:39:55.041Z,10.90
2017-12-31T06:42:22.780Z,10.90
2017-12-31T06:44:56.051Z,10.90
2017-12-31T06:47:29.903Z,10.90
2017-12-31T06:50:00.699Z,10.90
2017-12-31T06:52:29.195Z,11.00
2017-12-31T06:57:47.080Z,11.00
2017-12-31T07:03:01.583Z,11.00
2017-12-31T07:05:32.649Z,11.00
2017-12-31T07:08:01.044Z,11.00
2017-12-31T07:10:29.419Z,11.00
2017-12-31T07:12:57.144Z,11.00
2017-12-31T07:15:25.876Z,11.00
2017-12-31T07:17:56.383Z,10.90
2017-12-31T07:20:24.080Z,10.90
2017-12-31T07:22:51.744Z,10.90
2017-12-31T07:25:21.733Z,10.90
2017-12-31T07:27:49.350Z,10.90
2017-12-31T07:30:16.883Z,10.90
2017-12-31T07:32:45.255Z,10.90
2017-12-31T07:35:13.806Z,10.90
2017-12-31T07:37:41.620Z,10.90
2017-12-31T07:40:10.052Z,10.80
2017-12-31T07:42:37.755Z,10.80
2017-12-31T07:45:05.462Z,10.80
2017-12-31T07:47:33.515Z,10.80
2017-12-31T07:50:01.836Z,10.70
2017-12-31T07:52:29.553Z,10.70
2017-12-31T07:54:57.265Z,10.60
2017-12-31T07:57:24.886Z,10.60
2017-12-31T07:59:52.467Z,10.60
2017-12-31T08:02:20.098Z,10.70
2017-12-31T08:04:48.984Z,10.80
2017-12-31T08:07:17.002Z,10.80
2017-12-31T08:12:21.697Z,11.00
2017-12-31T08:14:51.761Z,11.00
2017-12-31T08:17:19.439Z,11.00
2017-12-31T08:19:47.842Z,11.20
2017-12-31T08:22:15.723Z,11.10
2017-12-31T08:24:43.383Z,11.20
2017-12-31T08:27:11.069Z,11.20
2017-12-31T08:29:38.702Z,11.30
2017-12-31T08:32:10.175Z,11.30
2017-12-31T08:34:37.923Z,11.30
2017-12-31T08:37:05.811Z,11.30
2017-12-31T08:39:33.353Z,11.30
2017-12-31T08:42:00.883Z,11.20
2017-12-31T08:44:31.761Z,11.10
2017-12-31T08:47:00.155Z,11.10
2017-12-31T08:49:27.971Z,11.10
2017-12-31T08:51:55.889Z,11.10
2017-12-31T08:54:25.847Z,11.10
2017-12-31T08:56:53.426Z,11.10
2017-12-31T08:59:24.637Z,11.10
2017-12-31T09:01:53.005Z,11.10
2017-12-31T09:04:21.392Z,11.00
2017-12-31T09:06:48.952Z,11.10
2017-12-31T09:09:16.767Z,11.10
2017-12-31T09:11:44.384Z,11.10
2017-12-31T09:14:12.081Z,11.20
2017-12-31T09:16:39.638Z,11.30
2017-12-31T09:19:07.168Z,11.70
2017-12-31T09:21:35.292Z,12.00
2017-12-31T09:24:03.735Z,11.70
2017-12-31T09:26:31.339Z,11.60
2017-12-31T09:28:58.904Z,11.70
2017-12-31T09:31:26.483Z,12.30
2017-12-31T09:33:54.884Z,12.90
2017-12-31T09:36:22.454Z,13.50
2017-12-31T09:41:32.938Z,14.10
2017-12-31T09:44:00.500Z,14.40
2017-12-31T09:46:28.310Z,14.40
2017-12-31T09:48:57.604Z,14.30
2017-12-31T09:51:26.284Z,14.20
2017-12-31T09:53:55.462Z,13.90
2017-12-31T09:56:25.670Z,13.70
2017-12-31T10:01:28.431Z,13.70
2017-12-31T10:03:56.108Z,13.80
2017-12-31T10:06:29.462Z,13.50
2017-12-31T10:08:57.162Z,13.30
2017-12-31T10:11:27.843Z,13.60
2017-12-31T10:13:56.166Z,13.60
2017-12-31T10:16:25.091Z,13.70
2017-12-31T10:18:52.618Z,13.70
2017-12-31T10:21:20.172Z,13.70
2017-12-31T10:23:48.755Z,13.80
2017-12-31T10:28:53.617Z,13.70
2017-12-31T10:31:23.281Z,13.40
2017-12-31T10:33:52.264Z,12.90
2017-12-31T10:36:20.884Z,12.70
2017-12-31T10:38:49.114Z,12.70
2017-12-31T10:41:16.753Z,12.50
2017-12-31T10:43:48.723Z,12.40
2017-12-31T10:46:17.258Z,12.30
2017-12-31T10:48:44.799Z,12.20
2017-12-31T10:51:14.999Z,12.10
2017-12-31T10:53:43.643Z,12.10
2017-12-31T10:56:11.539Z,12.00
2017-12-31T10:58:39.114Z,11.90
2017-12-31T11:01:07.259Z,11.90
2017-12-31T11:03:35.141Z,11.80
2017-12-31T11:06:05.143Z,11.90
2017-12-31T11:08:32.898Z,11.90
2017-12-31T11:11:01.392Z,11.90
2017-12-31T11:13:28.946Z,11.90
2017-12-31T11:15:57.084Z,12.00
2017-12-31T11:18:25.379Z,12.10
2017-12-31T11:20:52.931Z,12.00
2017-12-31T11:23:20.528Z,12.10
2017-12-31T11:25:48.775Z,12.10
2017-12-31T11:28:17.783Z,12.20
2017-12-31T11:30:45.371Z,12.10
2017-12-31T11:33:14.572Z,12.20
2017-12-31T11:35:42.102Z,12.20
2017-12-31T11:38:10.593Z,12.30
2017-12-31T11:40:40.019Z,12.30
2017-12-31T11:43:07.548Z,12.40
2017-12-31T11:45:35.167Z,12.50
2017-12-31T11:48:03.472Z,12.60
2017-12-31T11:50:31.012Z,12.60
2017-12-31T11:52:59.351Z,12.70
2017-12-31T11:55:26.990Z,12.70
2017-12-31T11:57:54.569Z,12.80
2017-12-31T12:00:22.175Z,12.90
2017-12-31T12:02:50.527Z,13.00
2017-12-31T12:05:18.137Z,13.00
2017-12-31T12:07:45.723Z,13.10
2017-12-31T12:10:15.597Z,13.00
2017-12-31T12:12:43.135Z,13.00
2017-12-31T12:15:11.503Z,12.80
2017-12-31T12:17:39.089Z,12.80
2017-12-31T12:20:07.389Z,12.70
2017-12-31T12:22:35.469Z,12.70
2017-12-31T12:25:03.042Z,12.70
2017-12-31T12:27:30.615Z,12.70
2017-12-31T12:29:58.267Z,12.70
2017-12-31T12:32:26.174Z,12.60
2017-12-31T12:34:53.723Z,12.70
2017-12-31T12:37:24.348Z,12.60
2017-12-31T12:39:51.903Z,12.60
2017-12-31T12:42:19.427Z,12.60
2017-12-31T12:44:46.991Z,12.60
2017-12-31T12:47:28.787Z,12.70
2017-12-31T12:52:54.637Z,12.80
2017-12-31T12:55:22.407Z,12.90
2017-12-31T12:57:50.771Z,13.00
2017-12-31T13:00:18.393Z,12.90
2017-12-31T13:02:48.721Z,12.80
2017-12-31T13:05:19.209Z,12.80
2017-12-31T13:07:46.863Z,12.60
2017-12-31T13:10:15.650Z,12.60
2017-12-31T13:12:43.347Z,12.60
2017-12-31T13:15:11.288Z,12.60
2017-12-31T13:17:38.979Z,12.70
2017-12-31T13:20:06.751Z,12.80
2017-12-31T13:22:34.464Z,12.70
2017-12-31T13:25:02.110Z,12.70
2017-12-31T13:27:29.717Z,12.70
2017-12-31T13:29:57.287Z,12.70
2017-12-31T13:32:25.645Z,12.80
2017-12-31T13:34:54.016Z,12.80
2017-12-31T13:37:21.676Z,12.80
2017-12-31T13:39:49.331Z,12.80
2017-12-31T13:42:16.986Z,12.80
2017-12-31T13:44:44.673Z,12.80
2017-12-31T13:47:12.310Z,12.80
2017-12-31T13:49:39.907Z,12.70
2017-12-31T13:52:07.558Z,12.60
2017-12-31T13:54:36.744Z,12.70
2017-12-31T13:57:04.397Z,12.60
2017-12-31T13:59:34.743Z,12.60
2017-12-31T14:02:09.704Z,12.60
2017-12-31T14:04:37.371Z,12.60
2017-12-31T14:07:05.747Z,12.50
2017-12-31T14:09:37.117Z,12.50
2017-12-31T14:12:04.732Z,12.40
2017-12-31T14:14:33.192Z,12.40
2017-12-31T14:17:01.080Z,12.30
2017-12-31T14:19:28.697Z,12.30
2017-12-31T14:21:56.338Z,12.30
2017-12-31T14:24:23.966Z,12.30
2017-12-31T14:26:51.690Z,12.20
2017-12-31T14:29:19.303Z,12.20
2017-12-31T14:31:46.933Z,12.20
2017-12-31T14:34:27.017Z,12.10
2017-12-31T14:39:30.431Z,12.10
2017-12-31T14:41:58.015Z,12.00
2017-12-31T14:44:26.451Z,12.00
2017-12-31T14:46:55.097Z,12.00
2017-12-31T14:49:23.914Z,12.00
2017-12-31T14:51:51.503Z,11.90
2017-12-31T14:54:20.011Z,11.80
2017-12-31T14:56:47.735Z,11.70
2017-12-31T14:59:16.473Z,11.70
2017-12-31T15:01:44.711Z,11.70
2017-12-31T15:04:12.438Z,11.70
2017-12-31T15:06:40.123Z,11.70
2017-12-31T15:09:07.765Z,11.60
2017-12-31T15:11:35.314Z,11.60
2017-12-31T15:14:02.949Z,11.50
2017-12-31T15:16:31.577Z,11.40
2017-12-31T15:18:59.174Z,11.40
2017-12-31T15:21:26.944Z,11.30
2017-12-31T15:23:56.083Z,11.20
2017-12-31T15:26:23.761Z,11.20
2017-12-31T15:28:51.305Z,11.10
2017-12-31T15:31:18.963Z,11.00
2017-12-31T15:33:46.617Z,10.90
2017-12-31T15:36:28.455Z,10.60
2017-12-31T15:41:35.131Z,10.50
2017-12-31T15:44:02.685Z,10.50
2017-12-31T15:46:30.273Z,10.50
2017-12-31T15:48:58.182Z,10.50
2017-12-31T15:51:25.901Z,10.30
2017-12-31T15:53:55.209Z,10.30
2017-12-31T15:56:22.802Z,10.20
2017-12-31T15:58:50.556Z,10.20
2017-12-31T16:01:18.112Z,10.10
2017-12-31T16:03:46.246Z,10.10
2017-12-31T16:06:26.597Z,10.00
2017-12-31T16:11:57.261Z,9.70
2017-12-31T16:14:24.877Z,9.70
2017-12-31T16:16:53.185Z,9.60
2017-12-31T16:19:22.166Z,9.60
2017-12-31T16:21:50.762Z,9.50
2017-12-31T16:24:18.393Z,9.50
2017-12-31T16:26:46.755Z,9.30
2017-12-31T16:29:26.227Z,9.30
2017-12-31T16:37:53.846Z,9.20
2017-12-31T16:40:21.540Z,8.90
2017-12-31T16:42:49.066Z,8.90
2017-12-31T16:45:16.630Z,8.90
2017-12-31T16:47:44.982Z,8.80
2017-12-31T16:50:12.542Z,8.80
2017-12-31T16:52:40.877Z,8.70
2017-12-31T16:55:08.441Z,8.70
2017-12-31T16:57:35.966Z,8.60
2017-12-31T17:00:04.849Z,8.60
2017-12-31T17:02:32.425Z,8.60
2017-12-31T17:05:00.408Z,8.50
2017-12-31T17:07:28.009Z,8.50
2017-12-31T17:09:55.586Z,8.40
2017-12-31T17:12:23.942Z,8.40
2017-12-31T17:14:51.564Z,8.30
2017-12-31T17:17:19.161Z,8.30
2017-12-31T17:19:46.716Z,8.30
2017-12-31T17:22:15.557Z,8.10
2017-12-31T17:24:43.896Z,8.10
2017-12-31T17:27:12.245Z,8.00
2017-12-31T17:29:39.803Z,8.00
2017-12-31T17:32:08.688Z,8.00
2017-12-31T17:34:36.292Z,8.00
2017-12-31T17:37:04.636Z,7.90
2017-12-31T17:39:34.123Z,7.90
2017-12-31T17:42:05.278Z,7.90
2017-12-31T17:44:35.532Z,7.80
2017-12-31T17:47:03.130Z,7.90
2017-12-31T17:49:30.717Z,7.80
2017-12-31T17:51:58.363Z,7.80
2017-12-31T17:54:25.941Z,7.70
2017-12-31T17:56:53.517Z,7.70
2017-12-31T17:59:21.075Z,7.70
2017-12-31T18:01:48.649Z,7.70
2017-12-31T18:04:16.516Z,7.70
2017-12-31T18:06:44.342Z,7.70
2017-12-31T18:09:11.880Z,7.60
2017-12-31T18:11:39.419Z,7.50
2017-12-31T18:14:06.984Z,7.50
2017-12-31T18:16:35.283Z,7.50
2017-12-31T18:19:02.820Z,7.50
2017-12-31T18:21:31.203Z,7.50
2017-12-31T18:23:59.505Z,7.40
2017-12-31T18:26:27.041Z,7.40
2017-12-31T18:28:55.406Z,7.30
2017-12-31T18:31:23.706Z,7.30
2017-12-31T18:33:51.250Z,7.30
2017-12-31T18:36:19.599Z,7.20
2017-12-31T18:38:47.131Z,7.20
2017-12-31T18:41:17.281Z,7.10
2017-12-31T18:43:44.851Z,7.10
2017-12-31T18:46:12.395Z,7.10
2017-12-31T18:48:39.927Z,7.10
2017-12-31T18:51:07.502Z,7.10
2017-12-31T18:53:35.040Z,7.10
2017-12-31T18:56:02.612Z,7.00
2017-12-31T18:58:30.168Z,7.00
2017-12-31T19:00:57.742Z,6.90
2017-12-31T19:03:25.281Z,6.80
2017-12-31T19:05:52.836Z,6.80
2017-12-31T19:08:20.561Z,6.70
2017-12-31T19:10:48.866Z,6.50
2017-12-31T19:13:17.319Z,6.50
2017-12-31T19:15:44.898Z,6.50
2017-12-31T19:18:12.439Z,6.50
2017-12-31T19:20:40.054Z,6.40
2017-12-31T19:23:07.638Z,6.30
2017-12-31T19:25:35.169Z,6.20
2017-12-31T19:28:02.756Z,6.30
2017-12-31T19:30:30.299Z,6.30
2017-12-31T19:32:57.830Z,6.30
2017-12-31T19:35:25.989Z,6.30
2017-12-31T19:37:54.298Z,6.20
2017-12-31T19:40:21.827Z,6.20
2017-12-31T19:42:49.494Z,6.20
2017-12-31T19:45:17.032Z,6.20
2017-12-31T19:47:44.623Z,6.10
2017-12-31T19:50:12.179Z,6.10
2017-12-31T19:52:39.779Z,6.10
2017-12-31T19:55:07.310Z,6.10
2017-12-31T19:57:35.205Z,6.10
2017-12-31T20:00:02.728Z,6.10
2017-12-31T20:02:30.263Z,6.20
2017-12-31T20:04:57.868Z,6.20
2017-12-31T20:07:25.483Z,6.20
2017-12-31T20:09:53.524Z,6.10
2017-12-31T20:12:21.139Z,6.10
2017-12-31T20:14:48.682Z,6.10
2017-12-31T20:17:16.420Z,6.10
2017-12-31T20:19:44.028Z,6.00
2017-12-31T20:22:11.558Z,6.10
2017-12-31T20:24:39.094Z,6.00
2017-12-31T20:27:06.650Z,6.00
2017-12-31T20:29:34.238Z,6.00
2017-12-31T20:32:01.821Z,5.90
2017-12-31T20:34:29.435Z,5.80
2017-12-31T20:36:56.967Z,5.80
2017-12-31T20:39:26.195Z,5.60
2017-12-31T20:41:53.839Z,5.60
2017-12-31T20:44:21.429Z,5.60
2017-12-31T20:46:49.006Z,5.60
2017-12-31T20:55:07.362Z,5.50
2017-12-31T20:57:34.891Z,5.30
2017-12-31T21:00:02.471Z,5.30
2017-12-31T21:02:30.105Z,5.20
2017-12-31T21:04:57.681Z,5.20
2017-12-31T21:07:25.215Z,5.10
2017-12-31T21:09:52.830Z,5.00
2017-12-31T21:12:24.357Z,4.90
2017-12-31T21:14:51.939Z,4.90
2017-12-31T21:17:19.550Z,4.80
2017-12-31T21:19:47.146Z,4.70
2017-12-31T21:22:16.535Z,4.70
2017-12-31T21:24:44.123Z,4.70
2017-12-31T21:27:11.706Z,4.70
2017-12-31T21:29:39.285Z,4.60
2017-12-31T21:32:06.914Z,4.60
2017-12-31T21:34:34.545Z,4.60
2017-12-31T21:37:02.079Z,4.50
2017-12-31T21:39:29.690Z,4.50
2017-12-31T21:41:57.266Z,4.40
2017-12-31T21:44:24.845Z,4.30
2017-12-31T21:46:52.439Z,4.30
2017-12-31T21:49:19.967Z,4.40
2017-12-31T21:51:47.579Z,4.40
2017-12-31T21:54:16.414Z,4.30
2017-12-31T21:56:44.757Z,4.30
2017-12-31T21:59:12.343Z,4.30
2017-12-31T22:01:39.962Z,4.30
2017-12-31T22:04:07.537Z,4.30
2017-12-31T22:06:35.075Z,4.30
2017-12-31T22:09:02.667Z,4.30
2017-12-31T22:11:30.597Z,4.30
2017-12-31T22:13:58.788Z,4.30
2017-12-31T22:16:26.397Z,4.30
2017-12-31T22:18:53.973Z,4.30
2017-12-31T22:21:21.570Z,4.30
2017-12-31T22:23:49.136Z,4.20
2017-12-31T22:26:16.718Z,4.20
2017-12-31T22:28:44.251Z,4.10
2017-12-31T22:31:19.008Z,4.10
2017-12-31T22:33:46.611Z,4.10
2017-12-31T22:36:25.459Z,4.00
2017-12-31T22:41:59.866Z,3.90
2017-12-31T22:44:28.205Z,3.90
2017-12-31T22:46:55.777Z,3.80
2017-12-31T22:49:23.399Z,3.90
2017-12-31T22:51:50.948Z,3.90
2017-12-31T22:54:18.537Z,3.90
2017-12-31T22:56:46.133Z,3.90
2017-12-31T22:59:16.322Z,3.90
2017-12-31T23:01:43.900Z,3.90
2017-12-31T23:04:11.483Z,3.90
2017-12-31T23:06:39.032Z,3.90
2017-12-31T23:09:06.588Z,3.90
2017-12-31T23:11:34.230Z,3.80
2017-12-31T23:14:02.170Z,3.90
2017-12-31T23:16:29.727Z,3.90
2017-12-31T23:18:57.345Z,3.90
2017-12-31T23:21:25.702Z,3.80
2017-12-31T23:23:53.251Z,3.80
2017-12-31T23:26:20.820Z,3.80
2017-12-31T23:28:48.366Z,3.80
2017-12-31T23:31:16.421Z,3.90
2017-12-31T23:33:44.183Z,3.80
2017-12-31T23:36:11.726Z,3.80
2017-12-31T23:38:39.276Z,3.80
2017-12-31T23:41:06.847Z,3.80
2017-12-31T23:43:34.429Z,3.80
2017-12-31T23:46:02.013Z,3.80
2017-12-31T23:48:29.632Z,3.80
2017-12-31T23:50:57.210Z,3.80
2017-12-31T23:53:24.809Z,3.80
2017-12-31T23:55:52.667Z,3.90
2017-12-31T23:58:20.212Z,3.90
